sensor_id;sensor_type;location;lat;lon;timestamp;P1;durP1;ratioP1;P2;durP2;ratioP2
60241;SDS011;46103;52.076;113.488;2024-02-16T00:03:16;16.42;;;5.93;;
60241;SDS011;46103;52.076;113.488;2024-02-16T00:06:35;6.20;;;2.85;;
60241;SDS011;46103;52.076;113.488;2024-02-16T00:13:22;10.52;;;3.45;;
60241;SDS011;46103;52.076;113.488;2024-02-16T00:16:33;8.20;;;2.53;;
60241;SDS011;46103;52.076;113.488;2024-02-16T00:19:38;7.78;;;3.35;;
60241;SDS011;46103;52.076;113.488;2024-02-16T00:22:47;2.88;;;1.83;;
60241;SDS011;46103;52.076;113.488;2024-02-16T00:26:05;14.80;;;9.20;;
60241;SDS011;46103;52.076;113.488;2024-02-16T00:32:45;41.65;;;17.15;;
60241;SDS011;46103;52.076;113.488;2024-02-16T00:35:52;57.90;;;25.30;;
60241;SDS011;46103;52.076;113.488;2024-02-16T00:39:01;57.20;;;24.63;;
60241;SDS011;46103;52.076;113.488;2024-02-16T00:42:13;54.83;;;21.52;;
60241;SDS011;46103;52.076;113.488;2024-02-16T00:49:07;66.95;;;27.85;;
60241;SDS011;46103;52.076;113.488;2024-02-16T00:52:31;84.35;;;32.83;;
60241;SDS011;46103;52.076;113.488;2024-02-16T00:55:41;81.07;;;34.55;;
60241;SDS011;46103;52.076;113.488;2024-02-16T00:58:51;78.50;;;33.08;;
60241;SDS011;46103;52.076;113.488;2024-02-16T01:01:58;72.50;;;31.58;;
60241;SDS011;46103;52.076;113.488;2024-02-16T01:05:04;64.15;;;27.15;;
60241;SDS011;46103;52.076;113.488;2024-02-16T01:08:12;81.97;;;33.95;;
60241;SDS011;46103;52.076;113.488;2024-02-16T01:11:41;118.22;;;50.83;;
60241;SDS011;46103;52.076;113.488;2024-02-16T01:15:04;103.97;;;39.33;;
60241;SDS011;46103;52.076;113.488;2024-02-16T01:18:13;39.22;;;20.30;;
60241;SDS011;46103;52.076;113.488;2024-02-16T01:21:17;8.73;;;3.63;;
60241;SDS011;46103;52.076;113.488;2024-02-16T01:24:26;7.50;;;2.53;;
60241;SDS011;46103;52.076;113.488;2024-02-16T01:27:35;6.75;;;3.22;;
60241;SDS011;46103;52.076;113.488;2024-02-16T01:30:45;6.25;;;3.05;;
60241;SDS011;46103;52.076;113.488;2024-02-16T01:33:54;12.07;;;3.72;;
60241;SDS011;46103;52.076;113.488;2024-02-16T01:40:49;8.70;;;4.05;;
60241;SDS011;46103;52.076;113.488;2024-02-16T01:44:08;27.60;;;12.27;;
60241;SDS011;46103;52.076;113.488;2024-02-16T01:51:25;26.48;;;12.02;;
60241;SDS011;46103;52.076;113.488;2024-02-16T01:54:30;50.15;;;19.60;;
60241;SDS011;46103;52.076;113.488;2024-02-16T01:58:13;40.15;;;15.35;;
60241;SDS011;46103;52.076;113.488;2024-02-16T02:01:36;31.50;;;13.57;;
60241;SDS011;46103;52.076;113.488;2024-02-16T02:08:48;39.45;;;17.58;;
60241;SDS011;46103;52.076;113.488;2024-02-16T02:12:09;31.02;;;14.30;;
60241;SDS011;46103;52.076;113.488;2024-02-16T03:32:15;6.30;;;2.40;;
60241;SDS011;46103;52.076;113.488;2024-02-16T03:35:51;7.13;;;2.90;;
60241;SDS011;46103;52.076;113.488;2024-02-16T03:44:50;4.72;;;2.00;;
60241;SDS011;46103;52.076;113.488;2024-02-16T03:49:04;6.75;;;2.35;;
60241;SDS011;46103;52.076;113.488;2024-02-16T03:53:45;4.75;;;1.85;;
60241;SDS011;46103;52.076;113.488;2024-02-16T04:03:05;6.95;;;2.45;;
60241;SDS011;46103;52.076;113.488;2024-02-16T04:06:42;4.80;;;2.10;;
60241;SDS011;46103;52.076;113.488;2024-02-16T04:09:49;5.60;;;2.08;;
60241;SDS011;46103;52.076;113.488;2024-02-16T04:13:24;7.05;;;2.90;;
60241;SDS011;46103;52.076;113.488;2024-02-16T04:16:49;3.88;;;1.48;;
60241;SDS011;46103;52.076;113.488;2024-02-16T04:20:11;4.85;;;1.70;;
60241;SDS011;46103;52.076;113.488;2024-02-16T04:23:17;4.43;;;1.67;;
60241;SDS011;46103;52.076;113.488;2024-02-16T04:26:26;7.85;;;2.30;;
60241;SDS011;46103;52.076;113.488;2024-02-16T04:29:43;6.75;;;2.40;;
60241;SDS011;46103;52.076;113.488;2024-02-16T04:32:47;3.85;;;1.67;;
60241;SDS011;46103;52.076;113.488;2024-02-16T04:35:51;5.20;;;1.85;;
60241;SDS011;46103;52.076;113.488;2024-02-16T04:46:15;4.82;;;1.80;;
60241;SDS011;46103;52.076;113.488;2024-02-16T04:49:19;5.43;;;2.10;;
60241;SDS011;46103;52.076;113.488;2024-02-16T04:56:10;6.38;;;2.08;;
60241;SDS011;46103;52.076;113.488;2024-02-16T04:59:29;10.30;;;2.75;;
60241;SDS011;46103;52.076;113.488;2024-02-16T05:02:33;6.40;;;2.65;;
60241;SDS011;46103;52.076;113.488;2024-02-16T05:05:56;4.00;;;1.75;;
60241;SDS011;46103;52.076;113.488;2024-02-16T05:09:13;6.80;;;1.70;;
60241;SDS011;46103;52.076;113.488;2024-02-16T05:12:23;3.15;;;1.65;;
60241;SDS011;46103;52.076;113.488;2024-02-16T05:15:29;7.45;;;2.47;;
60241;SDS011;46103;52.076;113.488;2024-02-16T05:18:35;7.00;;;1.92;;
60241;SDS011;46103;52.076;113.488;2024-02-16T05:21:42;8.55;;;2.75;;
60241;SDS011;46103;52.076;113.488;2024-02-16T05:25:25;5.18;;;1.58;;
60241;SDS011;46103;52.076;113.488;2024-02-16T05:28:35;3.25;;;1.65;;
60241;SDS011;46103;52.076;113.488;2024-02-16T05:31:40;4.85;;;1.98;;
60241;SDS011;46103;52.076;113.488;2024-02-16T05:35:00;7.32;;;3.00;;
60241;SDS011;46103;52.076;113.488;2024-02-16T05:42:24;10.13;;;3.33;;
60241;SDS011;46103;52.076;113.488;2024-02-16T05:47:14;10.60;;;3.80;;
60241;SDS011;46103;52.076;113.488;2024-02-16T05:51:45;7.95;;;3.45;;
60241;SDS011;46103;52.076;113.488;2024-02-16T05:55:22;12.02;;;4.03;;
60241;SDS011;46103;52.076;113.488;2024-02-16T05:58:43;8.30;;;3.17;;
60241;SDS011;46103;52.076;113.488;2024-02-16T06:01:55;7.80;;;3.08;;
60241;SDS011;46103;52.076;113.488;2024-02-16T06:05:12;7.82;;;2.78;;
60241;SDS011;46103;52.076;113.488;2024-02-16T06:08:36;5.25;;;2.20;;
60241;SDS011;46103;52.076;113.488;2024-02-16T06:11:43;7.05;;;2.30;;
60241;SDS011;46103;52.076;113.488;2024-02-16T06:15:13;7.38;;;2.85;;
60241;SDS011;46103;52.076;113.488;2024-02-16T06:40:25;21.05;;;7.13;;
60241;SDS011;46103;52.076;113.488;2024-02-16T07:05:42;9.63;;;4.95;;
60241;SDS011;46103;52.076;113.488;2024-02-16T07:10:59;10.02;;;3.33;;
60241;SDS011;46103;52.076;113.488;2024-02-16T07:15:05;7.80;;;3.40;;
60241;SDS011;46103;52.076;113.488;2024-02-16T07:23:30;9.57;;;3.17;;
60241;SDS011;46103;52.076;113.488;2024-02-16T07:42:46;9.23;;;3.83;;
60241;SDS011;46103;52.076;113.488;2024-02-16T07:52:38;6.55;;;2.70;;
60241;SDS011;46103;52.076;113.488;2024-02-16T08:05:29;5.82;;;2.72;;
60241;SDS011;46103;52.076;113.488;2024-02-16T08:10:06;5.68;;;2.75;;
60241;SDS011;46103;52.076;113.488;2024-02-16T08:14:30;9.40;;;3.85;;
60241;SDS011;46103;52.076;113.488;2024-02-16T08:44:45;11.65;;;5.15;;
60241;SDS011;46103;52.076;113.488;2024-02-16T09:31:50;8.05;;;2.72;;
60241;SDS011;46103;52.076;113.488;2024-02-16T09:46:17;12.80;;;3.35;;
60241;SDS011;46103;52.076;113.488;2024-02-16T10:05:18;17.33;;;6.55;;
60241;SDS011;46103;52.076;113.488;2024-02-16T10:09:46;25.33;;;10.38;;
60241;SDS011;46103;52.076;113.488;2024-02-16T10:14:18;27.10;;;10.80;;
60241;SDS011;46103;52.076;113.488;2024-02-16T10:17:25;20.33;;;9.40;;
60241;SDS011;46103;52.076;113.488;2024-02-16T10:20:33;31.38;;;10.05;;
60241;SDS011;46103;52.076;113.488;2024-02-16T10:38:24;32.47;;;11.55;;
60241;SDS011;46103;52.076;113.488;2024-02-16T10:41:34;58.85;;;25.67;;
60241;SDS011;46103;52.076;113.488;2024-02-16T11:00:31;29.88;;;11.45;;
60241;SDS011;46103;52.076;113.488;2024-02-16T11:03:26;27.20;;;11.60;;
60241;SDS011;46103;52.076;113.488;2024-02-16T11:06:55;29.98;;;11.88;;
60241;SDS011;46103;52.076;113.488;2024-02-16T11:10:19;29.10;;;12.73;;
60241;SDS011;46103;52.076;113.488;2024-02-16T11:14:59;18.50;;;10.77;;
60241;SDS011;46103;52.076;113.488;2024-02-16T11:18:03;32.60;;;13.15;;
60241;SDS011;46103;52.076;113.488;2024-02-16T11:21:23;28.83;;;11.27;;
60241;SDS011;46103;52.076;113.488;2024-02-16T11:24:43;18.55;;;9.70;;
60241;SDS011;46103;52.076;113.488;2024-02-16T11:28:05;16.17;;;8.40;;
60241;SDS011;46103;52.076;113.488;2024-02-16T11:32:01;20.63;;;7.88;;
60241;SDS011;46103;52.076;113.488;2024-02-16T11:48:32;14.90;;;5.32;;
60241;SDS011;46103;52.076;113.488;2024-02-16T11:51:51;10.35;;;5.65;;
60241;SDS011;46103;52.076;113.488;2024-02-16T11:58:38;21.17;;;8.10;;
60241;SDS011;46103;52.076;113.488;2024-02-16T12:02:03;11.95;;;7.68;;
60241;SDS011;46103;52.076;113.488;2024-02-16T12:05:28;15.15;;;5.28;;
60241;SDS011;46103;52.076;113.488;2024-02-16T12:08:49;13.77;;;5.63;;
60241;SDS011;46103;52.076;113.488;2024-02-16T12:12:05;21.05;;;9.02;;
60241;SDS011;46103;52.076;113.488;2024-02-16T12:15:39;18.13;;;7.28;;
60241;SDS011;46103;52.076;113.488;2024-02-16T12:19:04;11.38;;;6.03;;
60241;SDS011;46103;52.076;113.488;2024-02-16T12:22:22;17.65;;;8.88;;
60241;SDS011;46103;52.076;113.488;2024-02-16T12:26:00;20.02;;;9.25;;
60241;SDS011;46103;52.076;113.488;2024-02-16T12:29:49;17.23;;;6.50;;
60241;SDS011;46103;52.076;113.488;2024-02-16T12:33:22;22.58;;;7.55;;
60241;SDS011;46103;52.076;113.488;2024-02-16T12:41:09;13.98;;;6.07;;
60241;SDS011;46103;52.076;113.488;2024-02-16T12:44:52;12.90;;;5.60;;
60241;SDS011;46103;52.076;113.488;2024-02-16T12:48:17;25.98;;;10.57;;
60241;SDS011;46103;52.076;113.488;2024-02-16T12:51:22;14.80;;;6.15;;
60241;SDS011;46103;52.076;113.488;2024-02-16T12:54:32;20.58;;;7.43;;
60241;SDS011;46103;52.076;113.488;2024-02-16T12:57:37;16.00;;;6.85;;
60241;SDS011;46103;52.076;113.488;2024-02-16T13:01:02;15.40;;;6.95;;
60241;SDS011;46103;52.076;113.488;2024-02-16T13:05:23;16.50;;;5.65;;
60241;SDS011;46103;52.076;113.488;2024-02-16T13:09:22;11.57;;;5.97;;
60241;SDS011;46103;52.076;113.488;2024-02-16T13:15:48;18.77;;;5.85;;
60241;SDS011;46103;52.076;113.488;2024-02-16T13:19:14;14.75;;;6.43;;
60241;SDS011;46103;52.076;113.488;2024-02-16T13:22:40;25.83;;;11.13;;
60241;SDS011;46103;52.076;113.488;2024-02-16T13:26:03;41.10;;;14.45;;
60241;SDS011;46103;52.076;113.488;2024-02-16T13:29:39;45.97;;;20.10;;
60241;SDS011;46103;52.076;113.488;2024-02-16T13:32:57;64.22;;;28.70;;
60241;SDS011;46103;52.076;113.488;2024-02-16T13:36:49;63.65;;;26.55;;
60241;SDS011;46103;52.076;113.488;2024-02-16T13:40:41;75.28;;;29.08;;
60241;SDS011;46103;52.076;113.488;2024-02-16T13:45:09;72.95;;;27.90;;
60241;SDS011;46103;52.076;113.488;2024-02-16T14:08:46;77.35;;;32.67;;
60241;SDS011;46103;52.076;113.488;2024-02-16T14:32:51;92.25;;;40.35;;
60241;SDS011;46103;52.076;113.488;2024-02-16T15:21:08;35.92;;;15.82;;
60241;SDS011;46103;52.076;113.488;2024-02-16T15:24:14;48.13;;;21.38;;
60241;SDS011;46103;52.076;113.488;2024-02-16T15:27:23;51.58;;;20.90;;
60241;SDS011;46103;52.076;113.488;2024-02-16T15:31:03;44.63;;;18.65;;
60241;SDS011;46103;52.076;113.488;2024-02-16T15:34:11;30.77;;;13.50;;
60241;SDS011;46103;52.076;113.488;2024-02-16T15:44:34;20.95;;;6.30;;
60241;SDS011;46103;52.076;113.488;2024-02-16T15:51:11;21.40;;;6.93;;
60241;SDS011;46103;52.076;113.488;2024-02-16T15:54:33;24.60;;;9.85;;
60241;SDS011;46103;52.076;113.488;2024-02-16T15:58:19;28.77;;;13.70;;
60241;SDS011;46103;52.076;113.488;2024-02-16T16:01:39;29.33;;;11.75;;
60241;SDS011;46103;52.076;113.488;2024-02-16T16:05:04;22.20;;;10.68;;
60241;SDS011;46103;52.076;113.488;2024-02-16T16:08:29;20.60;;;10.25;;
60241;SDS011;46103;52.076;113.488;2024-02-16T16:12:21;22.33;;;9.55;;
60241;SDS011;46103;52.076;113.488;2024-02-16T16:15:50;33.00;;;12.98;;
60241;SDS011;46103;52.076;113.488;2024-02-16T16:18:58;34.35;;;14.30;;
60241;SDS011;46103;52.076;113.488;2024-02-16T16:22:15;36.30;;;13.77;;
60241;SDS011;46103;52.076;113.488;2024-02-16T16:25:39;27.65;;;11.93;;
60241;SDS011;46103;52.076;113.488;2024-02-16T16:29:01;26.17;;;10.38;;
60241;SDS011;46103;52.076;113.488;2024-02-16T16:32:25;24.73;;;10.88;;
60241;SDS011;46103;52.076;113.488;2024-02-16T16:36:36;24.45;;;9.27;;
60241;SDS011;46103;52.076;113.488;2024-02-16T16:40:25;29.05;;;12.13;;
60241;SDS011;46103;52.076;113.488;2024-02-16T16:44:01;29.73;;;13.00;;
60241;SDS011;46103;52.076;113.488;2024-02-16T16:47:12;37.58;;;15.25;;
60241;SDS011;46103;52.076;113.488;2024-02-16T16:50:40;36.35;;;15.15;;
60241;SDS011;46103;52.076;113.488;2024-02-16T16:53:54;30.83;;;14.98;;
60241;SDS011;46103;52.076;113.488;2024-02-16T16:57:05;44.25;;;17.17;;
60241;SDS011;46103;52.076;113.488;2024-02-16T17:00:15;40.67;;;17.60;;
60241;SDS011;46103;52.076;113.488;2024-02-16T17:03:39;46.28;;;19.55;;
60241;SDS011;46103;52.076;113.488;2024-02-16T17:07:07;33.53;;;13.98;;
60241;SDS011;46103;52.076;113.488;2024-02-16T17:10:35;38.40;;;16.63;;
60241;SDS011;46103;52.076;113.488;2024-02-16T17:14:06;24.75;;;11.68;;
60241;SDS011;46103;52.076;113.488;2024-02-16T17:17:39;27.25;;;10.18;;
60241;SDS011;46103;52.076;113.488;2024-02-16T17:21:56;16.70;;;10.30;;
60241;SDS011;46103;52.076;113.488;2024-02-16T17:25:57;21.58;;;11.30;;
60241;SDS011;46103;52.076;113.488;2024-02-16T17:29:20;18.50;;;9.50;;
60241;SDS011;46103;52.076;113.488;2024-02-16T17:33:43;30.52;;;12.32;;
60241;SDS011;46103;52.076;113.488;2024-02-16T17:37:54;31.30;;;12.77;;
60241;SDS011;46103;52.076;113.488;2024-02-16T17:41:55;27.90;;;11.27;;
60241;SDS011;46103;52.076;113.488;2024-02-16T17:45:55;20.85;;;10.57;;
60241;SDS011;46103;52.076;113.488;2024-02-16T17:50:24;28.63;;;16.65;;
60241;SDS011;46103;52.076;113.488;2024-02-16T17:54:41;19.27;;;6.25;;
60241;SDS011;46103;52.076;113.488;2024-02-16T17:58:57;12.07;;;7.72;;
60241;SDS011;46103;52.076;113.488;2024-02-16T18:02:44;24.60;;;8.10;;
60241;SDS011;46103;52.076;113.488;2024-02-16T18:06:43;15.70;;;7.47;;
60241;SDS011;46103;52.076;113.488;2024-02-16T18:11:05;14.02;;;6.40;;
60241;SDS011;46103;52.076;113.488;2024-02-16T18:14:50;12.77;;;6.88;;
60241;SDS011;46103;52.076;113.488;2024-02-16T18:19:17;18.00;;;8.45;;
60241;SDS011;46103;52.076;113.488;2024-02-16T18:23:25;15.13;;;7.03;;
60241;SDS011;46103;52.076;113.488;2024-02-16T18:27:32;11.63;;;4.43;;
60241;SDS011;46103;52.076;113.488;2024-02-16T18:31:49;9.23;;;3.30;;
60241;SDS011;46103;52.076;113.488;2024-02-16T18:35:16;7.57;;;3.40;;
60241;SDS011;46103;52.076;113.488;2024-02-16T18:39:27;10.70;;;3.38;;
60241;SDS011;46103;52.076;113.488;2024-02-16T18:43:04;6.68;;;3.05;;
60241;SDS011;46103;52.076;113.488;2024-02-16T18:47:07;9.75;;;2.70;;
60241;SDS011;46103;52.076;113.488;2024-02-16T18:51:10;9.10;;;3.03;;
60241;SDS011;46103;52.076;113.488;2024-02-16T18:54:19;4.50;;;1.92;;
60241;SDS011;46103;52.076;113.488;2024-02-16T18:58:35;7.18;;;3.30;;
60241;SDS011;46103;52.076;113.488;2024-02-16T19:06:38;6.22;;;2.03;;
60241;SDS011;46103;52.076;113.488;2024-02-16T19:10:31;9.98;;;3.35;;
60241;SDS011;46103;52.076;113.488;2024-02-16T19:14:20;8.02;;;3.28;;
60241;SDS011;46103;52.076;113.488;2024-02-16T19:18:11;1.98;;;1.48;;
60241;SDS011;46103;52.076;113.488;2024-02-16T19:21:47;6.57;;;1.85;;
60241;SDS011;46103;52.076;113.488;2024-02-16T19:25:18;4.90;;;2.25;;
60241;SDS011;46103;52.076;113.488;2024-02-16T19:29:09;3.28;;;2.10;;
60241;SDS011;46103;52.076;113.488;2024-02-16T19:32:59;4.25;;;1.52;;
60241;SDS011;46103;52.076;113.488;2024-02-16T19:37:13;4.63;;;2.08;;
60241;SDS011;46103;52.076;113.488;2024-02-16T19:40:55;6.35;;;2.22;;
60241;SDS011;46103;52.076;113.488;2024-02-16T19:44:36;8.75;;;2.47;;
60241;SDS011;46103;52.076;113.488;2024-02-16T19:49:26;4.78;;;1.55;;
60241;SDS011;46103;52.076;113.488;2024-02-16T19:58:02;4.90;;;1.42;;
60241;SDS011;46103;52.076;113.488;2024-02-16T20:02:33;3.45;;;1.05;;
60241;SDS011;46103;52.076;113.488;2024-02-16T20:07:09;4.05;;;1.25;;
60241;SDS011;46103;52.076;113.488;2024-02-16T20:10:18;7.40;;;1.95;;
60241;SDS011;46103;52.076;113.488;2024-02-16T20:14:33;8.07;;;1.73;;
60241;SDS011;46103;52.076;113.488;2024-02-16T20:18:33;2.90;;;1.95;;
60241;SDS011;46103;52.076;113.488;2024-02-16T20:22:37;4.80;;;2.17;;
60241;SDS011;46103;52.076;113.488;2024-02-16T20:26:45;2.42;;;1.20;;
60241;SDS011;46103;52.076;113.488;2024-02-16T20:30:52;4.22;;;1.77;;
60241;SDS011;46103;52.076;113.488;2024-02-16T20:35:16;4.07;;;2.20;;
60241;SDS011;46103;52.076;113.488;2024-02-16T20:39:20;1.17;;;0.40;;
60241;SDS011;46103;52.076;113.488;2024-02-16T21:51:09;7.32;;;2.22;;
60241;SDS011;46103;52.076;113.488;2024-02-16T22:13:27;3.88;;;1.95;;
60241;SDS011;46103;52.076;113.488;2024-02-16T22:53:19;4.40;;;1.85;;
